sensor_id;sensor_type;location;lat;lon;timestamp;temperature;humidity
8269;DHT22;4174;48.304;16.364;2023-07-31T00:04:43;19.60;99.90
8269;DHT22;4174;48.304;16.364;2023-07-31T00:10:50;19.50;99.90
8269;DHT22;4174;48.304;16.364;2023-07-31T00:16:50;19.50;99.90
8269;DHT22;4174;48.304;16.364;2023-07-31T00:22:54;19.50;99.90
8269;DHT22;4174;48.304;16.364;2023-07-31T00:28:58;19.40;99.90
8269;DHT22;4174;48.304;16.364;2023-07-31T00:35:01;19.40;99.90
8269;DHT22;4174;48.304;16.364;2023-07-31T00:41:06;19.30;99.90
8269;DHT22;4174;48.304;16.364;2023-07-31T00:47:09;19.20;99.90
8269;DHT22;4174;48.304;16.364;2023-07-31T00:53:13;19.20;99.90
8269;DHT22;4174;48.304;16.364;2023-07-31T00:59:16;19.30;99.90
8269;DHT22;4174;48.304;16.364;2023-07-31T01:05:20;19.20;99.90
8269;DHT22;4174;48.304;16.364;2023-07-31T01:11:27;19.20;99.90
8269;DHT22;4174;48.304;16.364;2023-07-31T01:17:30;19.20;99.90
8269;DHT22;4174;48.304;16.364;2023-07-31T01:23:42;19.20;99.90
8269;DHT22;4174;48.304;16.364;2023-07-31T01:29:47;19.10;99.90
8269;DHT22;4174;48.304;16.364;2023-07-31T01:35:49;19.00;99.90
8269;DHT22;4174;48.304;16.364;2023-07-31T01:41:53;19.00;99.90
8269;DHT22;4174;48.304;16.364;2023-07-31T01:47:58;19.00;99.90
8269;DHT22;4174;48.304;16.364;2023-07-31T01:54:02;19.00;99.90
8269;DHT22;4174;48.304;16.364;2023-07-31T02:00:11;19.00;99.90
8269;DHT22;4174;48.304;16.364;2023-07-31T02:06:16;19.00;99.90
8269;DHT22;4174;48.304;16.364;2023-07-31T02:12:20;18.90;99.90
8269;DHT22;4174;48.304;16.364;2023-07-31T02:18:23;18.80;99.90
8269;DHT22;4174;48.304;16.364;2023-07-31T02:24:27;19.00;99.90
8269;DHT22;4174;48.304;16.364;2023-07-31T02:30:30;19.00;99.90
8269;DHT22;4174;48.304;16.364;2023-07-31T02:36:34;19.00;99.90
8269;DHT22;4174;48.304;16.364;2023-07-31T02:42:38;19.00;99.90
8269;DHT22;4174;48.304;16.364;2023-07-31T02:48:42;18.90;99.90
8269;DHT22;4174;48.304;16.364;2023-07-31T02:54:46;18.90;99.90
8269;DHT22;4174;48.304;16.364;2023-07-31T03:00:50;18.80;99.90
8269;DHT22;4174;48.304;16.364;2023-07-31T03:06:54;18.80;99.90
8269;DHT22;4174;48.304;16.364;2023-07-31T03:12:58;18.80;99.90
8269;DHT22;4174;48.304;16.364;2023-07-31T03:19:02;18.70;99.90
8269;DHT22;4174;48.304;16.364;2023-07-31T03:25:07;18.50;99.90
8269;DHT22;4174;48.304;16.364;2023-07-31T03:31:12;18.50;99.90
8269;DHT22;4174;48.304;16.364;2023-07-31T03:37:15;18.50;99.90
8269;DHT22;4174;48.304;16.364;2023-07-31T03:43:19;18.50;99.90
8269;DHT22;4174;48.304;16.364;2023-07-31T03:49:23;18.60;99.90
8269;DHT22;4174;48.304;16.364;2023-07-31T03:55:27;18.70;99.90
8269;DHT22;4174;48.304;16.364;2023-07-31T04:01:32;18.60;99.90
8269;DHT22;4174;48.304;16.364;2023-07-31T04:07:35;18.90;99.90
8269;DHT22;4174;48.304;16.364;2023-07-31T04:13:40;19.00;99.90
8269;DHT22;4174;48.304;16.364;2023-07-31T04:19:44;19.10;99.90
8269;DHT22;4174;48.304;16.364;2023-07-31T04:25:48;19.30;99.90
8269;DHT22;4174;48.304;16.364;2023-07-31T04:31:52;19.70;99.90
8269;DHT22;4174;48.304;16.364;2023-07-31T04:37:56;19.60;99.90
8269;DHT22;4174;48.304;16.364;2023-07-31T04:44:00;19.70;99.90
8269;DHT22;4174;48.304;16.364;2023-07-31T04:50:03;19.80;99.90
8269;DHT22;4174;48.304;16.364;2023-07-31T04:56:08;19.80;99.90
8269;DHT22;4174;48.304;16.364;2023-07-31T05:02:12;19.70;99.90
8269;DHT22;4174;48.304;16.364;2023-07-31T05:08:16;19.70;99.90
8269;DHT22;4174;48.304;16.364;2023-07-31T05:14:18;20.00;99.90
8269;DHT22;4174;48.304;16.364;2023-07-31T05:20:23;20.40;99.90
8269;DHT22;4174;48.304;16.364;2023-07-31T05:26:27;21.30;99.90
8269;DHT22;4174;48.304;16.364;2023-07-31T05:32:31;22.70;99.90
8269;DHT22;4174;48.304;16.364;2023-07-31T05:38:35;22.60;99.90
8269;DHT22;4174;48.304;16.364;2023-07-31T05:44:38;22.60;99.90
8269;DHT22;4174;48.304;16.364;2023-07-31T05:50:43;23.10;99.90
8269;DHT22;4174;48.304;16.364;2023-07-31T05:56:44;24.00;99.90
8269;DHT22;4174;48.304;16.364;2023-07-31T06:02:49;26.00;99.90
8269;DHT22;4174;48.304;16.364;2023-07-31T06:08:53;25.90;99.90
8269;DHT22;4174;48.304;16.364;2023-07-31T06:14:57;25.40;99.90
8269;DHT22;4174;48.304;16.364;2023-07-31T06:21:02;24.90;99.90
8269;DHT22;4174;48.304;16.364;2023-07-31T06:27:06;24.90;99.90
8269;DHT22;4174;48.304;16.364;2023-07-31T06:33:10;25.10;99.90
8269;DHT22;4174;48.304;16.364;2023-07-31T06:39:15;25.20;99.90
8269;DHT22;4174;48.304;16.364;2023-07-31T06:45:20;25.20;99.90
8269;DHT22;4174;48.304;16.364;2023-07-31T06:51:25;26.60;99.90
8269;DHT22;4174;48.304;16.364;2023-07-31T06:57:30;28.40;99.90
8269;DHT22;4174;48.304;16.364;2023-07-31T07:03:34;28.40;99.90
8269;DHT22;4174;48.304;16.364;2023-07-31T07:09:37;29.30;97.30
8269;DHT22;4174;48.304;16.364;2023-07-31T07:15:41;29.80;92.80
8269;DHT22;4174;48.304;16.364;2023-07-31T07:21:45;29.50;88.00
8269;DHT22;4174;48.304;16.364;2023-07-31T07:27:48;30.30;90.00
8269;DHT22;4174;48.304;16.364;2023-07-31T07:33:52;30.40;88.70
8269;DHT22;4174;48.304;16.364;2023-07-31T07:39:56;30.60;83.20
8269;DHT22;4174;48.304;16.364;2023-07-31T07:46:00;31.10;81.00
8269;DHT22;4174;48.304;16.364;2023-07-31T07:52:05;28.70;76.30
8269;DHT22;4174;48.304;16.364;2023-07-31T07:58:09;28.20;83.50
8269;DHT22;4174;48.304;16.364;2023-07-31T08:04:12;26.90;82.80
8269;DHT22;4174;48.304;16.364;2023-07-31T08:10:16;27.30;90.90
8269;DHT22;4174;48.304;16.364;2023-07-31T08:16:21;27.20;90.90
8269;DHT22;4174;48.304;16.364;2023-07-31T08:22:25;28.00;87.90
8269;DHT22;4174;48.304;16.364;2023-07-31T08:28:28;28.70;88.30
8269;DHT22;4174;48.304;16.364;2023-07-31T08:34:33;29.50;80.90
8269;DHT22;4174;48.304;16.364;2023-07-31T08:40:36;29.90;71.20
8269;DHT22;4174;48.304;16.364;2023-07-31T08:46:38;30.40;76.10
8269;DHT22;4174;48.304;16.364;2023-07-31T08:52:41;29.80;68.30
8269;DHT22;4174;48.304;16.364;2023-07-31T08:58:44;29.70;75.60
8269;DHT22;4174;48.304;16.364;2023-07-31T09:04:48;28.60;71.90
8269;DHT22;4174;48.304;16.364;2023-07-31T09:10:51;28.90;76.90
8269;DHT22;4174;48.304;16.364;2023-07-31T09:16:55;29.40;70.80
8269;DHT22;4174;48.304;16.364;2023-07-31T09:22:58;30.80;64.20
8269;DHT22;4174;48.304;16.364;2023-07-31T09:29:00;31.50;61.50
8269;DHT22;4174;48.304;16.364;2023-07-31T09:35:11;32.00;64.40
8269;DHT22;4174;48.304;16.364;2023-07-31T09:41:05;32.90;57.40
8269;DHT22;4174;48.304;16.364;2023-07-31T09:47:24;33.20;53.10
8269;DHT22;4174;48.304;16.364;2023-07-31T09:53:28;32.20;54.10
8269;DHT22;4174;48.304;16.364;2023-07-31T09:59:33;32.40;52.60
8269;DHT22;4174;48.304;16.364;2023-07-31T10:05:36;33.00;53.80
8269;DHT22;4174;48.304;16.364;2023-07-31T10:11:41;32.80;51.70
8269;DHT22;4174;48.304;16.364;2023-07-31T10:17:44;32.70;54.20
8269;DHT22;4174;48.304;16.364;2023-07-31T10:23:46;31.80;51.90
8269;DHT22;4174;48.304;16.364;2023-07-31T10:29:50;32.30;51.80
8269;DHT22;4174;48.304;16.364;2023-07-31T10:36:25;32.10;50.40
8269;DHT22;4174;48.304;16.364;2023-07-31T10:42:14;32.10;50.50
8269;DHT22;4174;48.304;16.364;2023-07-31T10:48:17;33.00;55.40
8269;DHT22;4174;48.304;16.364;2023-07-31T10:54:21;33.40;51.50
8269;DHT22;4174;48.304;16.364;2023-07-31T11:00:28;33.90;51.60
8269;DHT22;4174;48.304;16.364;2023-07-31T11:06:30;33.90;51.70
8269;DHT22;4174;48.304;16.364;2023-07-31T11:12:34;34.10;51.50
8269;DHT22;4174;48.304;16.364;2023-07-31T11:18:38;34.20;49.30
8269;DHT22;4174;48.304;16.364;2023-07-31T11:24:40;33.10;52.90
8269;DHT22;4174;48.304;16.364;2023-07-31T11:30:44;32.50;56.50
8269;DHT22;4174;48.304;16.364;2023-07-31T11:36:54;32.60;51.40
8269;DHT22;4174;48.304;16.364;2023-07-31T11:42:57;33.10;53.50
8269;DHT22;4174;48.304;16.364;2023-07-31T11:48:59;33.10;53.60
8269;DHT22;4174;48.304;16.364;2023-07-31T11:55:03;33.60;50.30
8269;DHT22;4174;48.304;16.364;2023-07-31T12:01:06;33.10;50.70
8269;DHT22;4174;48.304;16.364;2023-07-31T12:07:10;33.10;50.60
8269;DHT22;4174;48.304;16.364;2023-07-31T12:13:19;32.50;48.90
8269;DHT22;4174;48.304;16.364;2023-07-31T12:19:16;32.00;52.40
8269;DHT22;4174;48.304;16.364;2023-07-31T12:25:20;32.70;49.70
8269;DHT22;4174;48.304;16.364;2023-07-31T12:31:23;32.70;49.70
8269;DHT22;4174;48.304;16.364;2023-07-31T12:37:28;33.10;49.00
8269;DHT22;4174;48.304;16.364;2023-07-31T12:43:31;32.70;50.50
8269;DHT22;4174;48.304;16.364;2023-07-31T12:49:35;32.70;48.90
8269;DHT22;4174;48.304;16.364;2023-07-31T12:55:39;32.70;48.90
8269;DHT22;4174;48.304;16.364;2023-07-31T13:01:43;32.80;46.50
8269;DHT22;4174;48.304;16.364;2023-07-31T13:07:47;32.70;48.10
8269;DHT22;4174;48.304;16.364;2023-07-31T13:13:50;32.50;48.50
8269;DHT22;4174;48.304;16.364;2023-07-31T13:19:54;32.40;48.50
8269;DHT22;4174;48.304;16.364;2023-07-31T13:25:57;32.50;48.00
8269;DHT22;4174;48.304;16.364;2023-07-31T13:32:01;32.20;50.70
8269;DHT22;4174;48.304;16.364;2023-07-31T13:38:07;32.50;48.00
8269;DHT22;4174;48.304;16.364;2023-07-31T13:44:11;31.90;49.20
8269;DHT22;4174;48.304;16.364;2023-07-31T13:50:14;31.90;49.20
8269;DHT22;4174;48.304;16.364;2023-07-31T13:56:18;31.70;50.90
8269;DHT22;4174;48.304;16.364;2023-07-31T14:02:22;31.60;51.00
8269;DHT22;4174;48.304;16.364;2023-07-31T14:08:26;31.60;50.90
8269;DHT22;4174;48.304;16.364;2023-07-31T14:14:29;31.60;50.60
8269;DHT22;4174;48.304;16.364;2023-07-31T14:20:33;31.20;52.20
8269;DHT22;4174;48.304;16.364;2023-07-31T14:26:37;31.20;52.10
8269;DHT22;4174;48.304;16.364;2023-07-31T14:32:41;30.00;51.90
8269;DHT22;4174;48.304;16.364;2023-07-31T14:38:45;29.90;51.90
8269;DHT22;4174;48.304;16.364;2023-07-31T14:44:49;30.40;50.50
8269;DHT22;4174;48.304;16.364;2023-07-31T14:50:52;31.10;49.60
8269;DHT22;4174;48.304;16.364;2023-07-31T14:56:55;31.00;49.80
8269;DHT22;4174;48.304;16.364;2023-07-31T15:02:59;31.00;49.90
8269;DHT22;4174;48.304;16.364;2023-07-31T15:09:03;31.00;48.50
8269;DHT22;4174;48.304;16.364;2023-07-31T15:15:07;30.90;48.00
8269;DHT22;4174;48.304;16.364;2023-07-31T15:21:11;30.70;48.20
8269;DHT22;4174;48.304;16.364;2023-07-31T15:27:14;30.10;49.20
8269;DHT22;4174;48.304;16.364;2023-07-31T15:33:17;29.60;49.70
8269;DHT22;4174;48.304;16.364;2023-07-31T15:39:21;29.50;48.80
8269;DHT22;4174;48.304;16.364;2023-07-31T15:45:25;29.10;51.70
8269;DHT22;4174;48.304;16.364;2023-07-31T15:51:29;28.90;51.90
8269;DHT22;4174;48.304;16.364;2023-07-31T15:57:33;28.60;52.40
8269;DHT22;4174;48.304;16.364;2023-07-31T16:03:37;28.60;52.40
8269;DHT22;4174;48.304;16.364;2023-07-31T16:09:40;28.40;51.50
8269;DHT22;4174;48.304;16.364;2023-07-31T16:15:44;28.30;52.40
8269;DHT22;4174;48.304;16.364;2023-07-31T16:21:47;28.20;51.60
8269;DHT22;4174;48.304;16.364;2023-07-31T16:27:50;28.00;52.60
8269;DHT22;4174;48.304;16.364;2023-07-31T16:33:54;27.70;51.60
8269;DHT22;4174;48.304;16.364;2023-07-31T16:39:58;27.50;51.70
8269;DHT22;4174;48.304;16.364;2023-07-31T16:46:02;27.40;51.30
8269;DHT22;4174;48.304;16.364;2023-07-31T16:52:06;27.40;49.70
8269;DHT22;4174;48.304;16.364;2023-07-31T16:58:10;27.40;48.80
8269;DHT22;4174;48.304;16.364;2023-07-31T17:04:14;27.40;48.80
8269;DHT22;4174;48.304;16.364;2023-07-31T17:10:18;27.30;48.80
8269;DHT22;4174;48.304;16.364;2023-07-31T17:16:21;27.20;50.20
8269;DHT22;4174;48.304;16.364;2023-07-31T17:22:25;27.10;52.50
8269;DHT22;4174;48.304;16.364;2023-07-31T17:28:30;27.10;52.60
8269;DHT22;4174;48.304;16.364;2023-07-31T17:34:32;27.00;51.80
8269;DHT22;4174;48.304;16.364;2023-07-31T17:40:37;26.90;52.60
8269;DHT22;4174;48.304;16.364;2023-07-31T17:46:38;26.80;53.70
8269;DHT22;4174;48.304;16.364;2023-07-31T17:52:42;26.60;53.10
8269;DHT22;4174;48.304;16.364;2023-07-31T17:58:46;26.40;55.80
8269;DHT22;4174;48.304;16.364;2023-07-31T18:04:50;26.40;55.80
8269;DHT22;4174;48.304;16.364;2023-07-31T18:10:53;26.30;57.20
8269;DHT22;4174;48.304;16.364;2023-07-31T18:16:58;25.90;57.90
8269;DHT22;4174;48.304;16.364;2023-07-31T18:23:01;25.80;57.80
8269;DHT22;4174;48.304;16.364;2023-07-31T18:29:05;25.70;59.50
8269;DHT22;4174;48.304;16.364;2023-07-31T18:35:08;25.60;64.00
8269;DHT22;4174;48.304;16.364;2023-07-31T18:41:12;25.40;62.20
8269;DHT22;4174;48.304;16.364;2023-07-31T18:47:15;25.10;71.00
8269;DHT22;4174;48.304;16.364;2023-07-31T18:53:19;24.90;72.00
8269;DHT22;4174;48.304;16.364;2023-07-31T18:59:23;24.70;72.40
8269;DHT22;4174;48.304;16.364;2023-07-31T19:05:26;24.40;75.20
8269;DHT22;4174;48.304;16.364;2023-07-31T19:11:29;24.20;75.60
8269;DHT22;4174;48.304;16.364;2023-07-31T19:17:33;24.00;78.10
8269;DHT22;4174;48.304;16.364;2023-07-31T19:23:36;23.80;82.70
8269;DHT22;4174;48.304;16.364;2023-07-31T19:29:39;23.70;82.60
8269;DHT22;4174;48.304;16.364;2023-07-31T19:35:43;23.40;83.70
8269;DHT22;4174;48.304;16.364;2023-07-31T19:41:47;23.30;89.90
8269;DHT22;4174;48.304;16.364;2023-07-31T19:47:51;23.20;88.90
8269;DHT22;4174;48.304;16.364;2023-07-31T19:53:55;23.20;90.80
8269;DHT22;4174;48.304;16.364;2023-07-31T19:59:59;23.10;93.10
8269;DHT22;4174;48.304;16.364;2023-07-31T20:06:02;23.00;95.30
8269;DHT22;4174;48.304;16.364;2023-07-31T20:12:07;22.90;95.60
8269;DHT22;4174;48.304;16.364;2023-07-31T20:18:11;22.90;95.40
8269;DHT22;4174;48.304;16.364;2023-07-31T20:24:15;22.80;98.20
8269;DHT22;4174;48.304;16.364;2023-07-31T20:30:18;22.60;97.20
8269;DHT22;4174;48.304;16.364;2023-07-31T20:36:22;22.50;99.90
8269;DHT22;4174;48.304;16.364;2023-07-31T20:42:26;22.40;99.90
8269;DHT22;4174;48.304;16.364;2023-07-31T20:48:29;22.40;99.90
8269;DHT22;4174;48.304;16.364;2023-07-31T20:54:33;22.50;99.90
8269;DHT22;4174;48.304;16.364;2023-07-31T21:00:37;22.50;99.90
8269;DHT22;4174;48.304;16.364;2023-07-31T21:06:40;22.60;99.90
8269;DHT22;4174;48.304;16.364;2023-07-31T21:12:43;22.50;99.90
8269;DHT22;4174;48.304;16.364;2023-07-31T21:18:47;22.50;99.90
8269;DHT22;4174;48.304;16.364;2023-07-31T21:24:51;22.60;99.90
8269;DHT22;4174;48.304;16.364;2023-07-31T21:30:54;22.70;99.90
8269;DHT22;4174;48.304;16.364;2023-07-31T21:36:57;22.60;99.90
8269;DHT22;4174;48.304;16.364;2023-07-31T21:43:03;22.50;99.90
8269;DHT22;4174;48.304;16.364;2023-07-31T21:49:07;22.50;99.90
8269;DHT22;4174;48.304;16.364;2023-07-31T21:55:11;22.40;99.90
8269;DHT22;4174;48.304;16.364;2023-07-31T22:01:14;22.40;99.90
8269;DHT22;4174;48.304;16.364;2023-07-31T22:07:18;22.40;99.90
8269;DHT22;4174;48.304;16.364;2023-07-31T22:13:21;22.30;99.90
8269;DHT22;4174;48.304;16.364;2023-07-31T22:19:25;22.30;99.90
8269;DHT22;4174;48.304;16.364;2023-07-31T22:25:28;22.30;99.90
8269;DHT22;4174;48.304;16.364;2023-07-31T22:31:32;22.30;99.90
8269;DHT22;4174;48.304;16.364;2023-07-31T22:37:36;22.30;99.90
8269;DHT22;4174;48.304;16.364;2023-07-31T22:43:39;22.30;99.90
8269;DHT22;4174;48.304;16.364;2023-07-31T22:49:43;22.20;99.90
8269;DHT22;4174;48.304;16.364;2023-07-31T22:55:46;22.00;99.90
8269;DHT22;4174;48.304;16.364;2023-07-31T23:01:50;21.70;99.90
8269;DHT22;4174;48.304;16.364;2023-07-31T23:07:53;21.60;99.90
8269;DHT22;4174;48.304;16.364;2023-07-31T23:13:56;21.80;99.90
8269;DHT22;4174;48.304;16.364;2023-07-31T23:20:00;21.50;99.90
8269;DHT22;4174;48.304;16.364;2023-07-31T23:26:04;21.40;99.90
8269;DHT22;4174;48.304;16.364;2023-07-31T23:32:08;21.50;99.90
8269;DHT22;4174;48.304;16.364;2023-07-31T23:38:12;21.60;99.90
8269;DHT22;4174;48.304;16.364;2023-07-31T23:44:16;21.60;99.90
8269;DHT22;4174;48.304;16.364;2023-07-31T23:50:20;21.70;99.90
8269;DHT22;4174;48.304;16.364;2023-07-31T23:56:24;21.50;99.90
